LFOP/URO METAR and TAF weather

Enter ICAO airport designator
Station Type Date Time Source
LFOP METAR 2020/09/21 07:00 UTC NOAA

LFOP 210700Z AUTO 01005KT CAVOK 14/10 Q1017 NOSIG


Station Type Date Time Source
LFOP Decoded METAR 2020/09/21 07:00 UTC NOAA

Rouen, France (LFOP) 49-23N 001-11E 157M
Sep 21, 2020 - 03:00 AM EDT / 2020.09.21 0700 UTC
Wind: from the N (010 degrees) at 6 MPH (5 KT):0
Visibility: greater than 7 mile(s):0
Temperature: 57 F (14 C)
Dew Point: 50 F (10 C)
Relative Humidity: 76%
Pressure (altimeter): 30.03 in. Hg (1017 hPa)
ob: LFOP 210700Z AUTO 01005KT CAVOK 14/10 Q1017 NOSIG
cycle: 7

Station Type Date Time Source
LFOP TAF 2020/09/21 06:21 UTC NOAA

TAF LFOP 210500Z 2106/2206 03007KT CAVOK PROB40
TEMPO 2200/2206 0300 FG VV///

Example: see airport list